Time;durP1;ratioP1;P1;durP2;ratioP2;P2;SDS_P1;SDS_P2;PMS_P1;PMS_P2;Temp;Humidity;BMP_temperature;BMP_pressure;BME280_temperature;BME280_humidity;BME280_pressure;Samples;Min_cycle;Max_cycle;Signal;HPM_P1;HPM_P2
2021/07/30 00:00:28;;;;;;;21.05;7.88;;;17.00;99.90;;;;;;5012093;28;20242;-82
2021/07/30 00:02:54;;;;;;;27.67;9.27;;;17.00;99.90;;;;;;5009935;28;20198;-81
2021/07/30 00:05:21;;;;;;;19.10;8.75;;;17.00;99.90;;;;;;5010468;28;20533;-83
2021/07/30 00:07:48;;;;;;;14.98;7.40;;;17.00;99.90;;;;;;5029766;28;20214;-83
2021/07/30 00:10:16;;;;;;;18.45;7.97;;;17.00;99.90;;;;;;5029318;28;20217;-83
2021/07/30 00:12:43;;;;;;;12.63;7.70;;;17.00;99.90;;;;;;5027942;28;20230;-82
2021/07/30 00:15:11;;;;;;;16.25;8.10;;;17.00;99.90;;;;;;5030183;28;20745;-83
2021/07/30 00:17:38;;;;;;;16.05;7.75;;;16.90;99.90;;;;;;5029262;28;20488;-84
2021/07/30 00:20:07;;;;;;;21.60;7.53;;;16.90;99.90;;;;;;5012031;28;20278;-82
2021/07/30 00:22:34;;;;;;;16.35;7.93;;;16.90;99.90;;;;;;5009098;28;20227;-83
2021/07/30 00:25:01;;;;;;;18.42;7.43;;;16.90;99.90;;;;;;5008619;28;20207;-82
2021/07/30 00:27:29;;;;;;;16.05;6.93;;;16.90;99.90;;;;;;5023884;28;20203;-83
2021/07/30 00:29:56;;;;;;;21.35;8.45;;;16.90;99.90;;;;;;5020695;28;20211;-82
2021/07/30 00:32:23;;;;;;;13.30;7.45;;;16.90;99.90;;;;;;5009131;28;20222;-83
2021/07/30 00:34:49;;;;;;;14.20;7.05;;;16.80;99.90;;;;;;5008315;28;20525;-81
2021/07/30 00:37:16;;;;;;;13.45;7.93;;;16.80;99.90;;;;;;5009476;28;20199;-83
2021/07/30 00:39:43;;;;;;;14.82;7.43;;;16.80;99.90;;;;;;5008791;28;20238;-83
2021/07/30 00:42:10;;;;;;;16.65;6.97;;;16.80;99.90;;;;;;5008613;28;20219;-82
2021/07/30 00:44:38;;;;;;;15.23;7.20;;;16.80;99.90;;;;;;5008924;28;20214;-80
2021/07/30 00:47:05;;;;;;;20.25;7.50;;;16.80;99.90;;;;;;5008258;28;20200;-81
2021/07/30 00:49:32;;;;;;;17.58;7.30;;;16.80;99.90;;;;;;5027450;28;20521;-80
2021/07/30 00:51:59;;;;;;;12.90;6.80;;;16.70;99.90;;;;;;5011516;28;20204;-82
2021/07/30 00:54:27;;;;;;;17.30;7.97;;;16.70;99.90;;;;;;5010002;28;20215;-81
2021/07/30 00:56:54;;;;;;;15.25;7.28;;;16.70;99.90;;;;;;5010565;28;20207;-83
2021/07/30 00:59:22;;;;;;;20.55;7.22;;;16.70;99.90;;;;;;5029709;28;20195;-82
2021/07/30 01:01:51;;;;;;;14.30;7.43;;;16.70;99.90;;;;;;5028091;28;20618;-83
2021/07/30 01:04:18;;;;;;;12.55;7.13;;;16.70;99.90;;;;;;5028564;28;20226;-82
2021/07/30 01:06:45;;;;;;;14.15;7.07;;;16.70;99.90;;;;;;5029307;28;20198;-83
2021/07/30 01:09:12;;;;;;;12.77;7.38;;;16.70;99.90;;;;;;5029203;28;20203;-82
2021/07/30 01:11:39;;;;;;;15.52;7.00;;;16.70;99.90;;;;;;5018430;28;20218;-85
2021/07/30 01:14:07;;;;;;;16.55;7.30;;;16.60;99.90;;;;;;5009612;28;20242;-83
2021/07/30 01:16:34;;;;;;;15.65;7.25;;;16.60;99.90;;;;;;5008952;28;20926;-85
2021/07/30 01:19:03;;;;;;;19.70;7.55;;;16.60;99.90;;;;;;5009779;28;20199;-82
2021/07/30 01:21:31;;;;;;;17.90;6.70;;;16.60;99.90;;;;;;5007929;28;20289;-82
2021/07/30 01:23:59;;;;;;;12.75;6.90;;;16.60;99.90;;;;;;5024038;28;20218;-83
2021/07/30 01:26:26;;;;;;;14.10;7.20;;;16.60;99.90;;;;;;5028228;28;20207;-82
2021/07/30 01:28:53;;;;;;;13.75;6.50;;;16.60;99.90;;;;;;5027331;28;20665;-83
2021/07/30 01:31:20;;;;;;;13.35;7.28;;;16.60;99.90;;;;;;5012189;28;20219;-83
2021/07/30 01:33:46;;;;;;;11.02;6.80;;;16.60;99.90;;;;;;5004374;28;20211;-84
2021/07/30 01:36:13;;;;;;;14.07;6.78;;;16.60;99.90;;;;;;5004699;28;20196;-83
2021/07/30 01:38:40;;;;;;;17.38;6.90;;;16.60;99.90;;;;;;5004669;28;20238;-83
2021/07/30 01:41:11;;;;;;;16.05;6.47;;;16.60;99.90;;;;;;5006121;28;20634;-81
2021/07/30 01:43:39;;;;;;;12.55;6.50;;;16.50;99.90;;;;;;5004938;28;20214;-82
2021/07/30 01:46:06;;;;;;;19.02;6.72;;;16.50;99.90;;;;;;5006790;28;20544;-82
2021/07/30 01:48:33;;;;;;;12.77;6.47;;;16.50;99.90;;;;;;5007079;28;20213;-81
2021/07/30 01:51:00;;;;;;;12.48;6.47;;;16.50;99.90;;;;;;5025280;28;20209;-82
2021/07/30 01:53:27;;;;;;;17.83;6.50;;;16.50;99.90;;;;;;5021184;28;20525;-84
2021/07/30 01:55:54;;;;;;;14.52;6.25;;;16.40;99.90;;;;;;5007501;28;20203;-82
2021/07/30 01:58:23;;;;;;;16.20;5.80;;;16.40;99.90;;;;;;5008085;28;20206;-83
2021/07/30 02:00:53;;;;;;;15.50;6.30;;;16.40;99.90;;;;;;5007689;28;20203;-82
2021/07/30 02:03:20;;;;;;;13.20;6.32;;;16.40;99.90;;;;;;5007938;28;20218;-82
2021/07/30 02:05:47;;;;;;;14.10;5.80;;;16.30;99.90;;;;;;5006913;28;20238;-84
2021/07/30 02:08:14;;;;;;;12.63;5.90;;;16.30;99.90;;;;;;5007752;28;20214;-82
2021/07/30 02:10:41;;;;;;;14.93;5.93;;;16.30;99.90;;;;;;5010968;28;20277;-83
2021/07/30 02:15:59;;;;;;;15.02;5.93;;;16.30;99.90;;;;;;4955811;28;20211;-83
2021/07/30 02:18:26;;;;;;;13.32;5.80;;;16.30;99.90;;;;;;5009110;28;20192;-81
2021/07/30 02:20:53;;;;;;;12.05;5.03;;;16.30;99.90;;;;;;5009077;28;20711;-83
2021/07/30 02:23:19;;;;;;;16.97;5.57;;;16.30;99.90;;;;;;5024810;28;20213;-83
2021/07/30 02:25:46;;;;;;;14.63;5.90;;;16.30;99.90;;;;;;5026937;28;20195;-83
2021/07/30 02:28:13;;;;;;;14.82;5.50;;;16.30;99.90;;;;;;5027126;28;20221;-81
2021/07/30 02:30:40;;;;;;;12.07;4.75;;;16.20;99.90;;;;;;5021912;28;20573;-83
2021/07/30 02:33:08;;;;;;;11.68;4.88;;;16.20;99.90;;;;;;5004548;28;20207;-82
2021/07/30 02:35:35;;;;;;;12.32;5.07;;;16.20;99.90;;;;;;5006585;28;20207;-81
2021/07/30 02:38:01;;;;;;;16.98;5.38;;;16.30;99.90;;;;;;5007927;28;20532;-81
2021/07/30 02:40:28;;;;;;;11.00;4.82;;;16.30;99.90;;;;;;5007586;28;20519;-82
2021/07/30 02:42:55;;;;;;;14.77;5.75;;;16.30;99.90;;;;;;5007387;28;20525;-84
2021/07/30 02:45:22;;;;;;;13.45;5.32;;;16.30;99.90;;;;;;5007540;28;20210;-83
2021/07/30 02:47:48;;;;;;;12.73;5.60;;;16.30;99.90;;;;;;5009913;28;20610;-83
2021/07/30 02:50:16;;;;;;;12.25;5.20;;;16.30;99.90;;;;;;5010457;28;20210;-84
2021/07/30 02:52:43;;;;;;;13.57;5.32;;;16.30;99.90;;;;;;5009102;28;20468;-84
2021/07/30 02:55:10;;;;;;;11.75;5.07;;;16.30;99.90;;;;;;5010690;28;20207;-84
2021/07/30 02:57:37;;;;;;;13.15;6.18;;;16.30;99.90;;;;;;5009874;28;20466;-84
2021/07/30 03:00:05;;;;;;;14.48;5.63;;;16.20;99.90;;;;;;5010323;28;20222;-83
2021/07/30 03:02:32;;;;;;;13.65;5.43;;;16.10;99.90;;;;;;5009594;28;20220;-83
2021/07/30 03:04:59;;;;;;;15.93;5.60;;;16.00;99.90;;;;;;5010486;28;20588;-83
2021/07/30 03:07:27;;;;;;;11.82;5.63;;;16.00;99.90;;;;;;5010139;28;20195;-84
2021/07/30 03:09:54;;;;;;;8.97;4.80;;;15.80;99.90;;;;;;5010339;28;20515;-84
2021/07/30 03:12:21;;;;;;;12.57;5.30;;;15.70;99.90;;;;;;5010074;28;20226;-83
2021/07/30 03:14:47;;;;;;;12.60;5.13;;;15.60;99.90;;;;;;5009691;28;20207;-85
2021/07/30 03:17:14;;;;;;;7.63;4.50;;;15.60;99.90;;;;;;5009804;28;20219;-84
2021/07/30 03:19:41;;;;;;;11.15;5.75;;;15.60;99.90;;;;;;5009415;28;20262;-81
2021/07/30 03:22:08;;;;;;;11.77;5.67;;;15.50;99.90;;;;;;5009689;28;21048;-81
2021/07/30 03:24:36;;;;;;;8.60;5.55;;;15.50;99.90;;;;;;5008152;28;20211;-81
2021/07/30 03:27:05;;;;;;;10.07;5.50;;;15.40;99.90;;;;;;5016858;28;20264;-84
2021/07/30 03:29:32;;;;;;;14.55;5.22;;;15.40;99.90;;;;;;5029597;28;20206;-82
2021/07/30 03:31:59;;;;;;;10.93;5.30;;;15.30;99.90;;;;;;5032851;28;20580;-83
2021/07/30 03:34:27;;;;;;;8.83;5.33;;;15.30;99.90;;;;;;5033540;28;20207;-82
2021/07/30 03:36:54;;;;;;;11.63;6.40;;;15.20;99.90;;;;;;5032760;28;20261;-82
2021/07/30 03:39:21;;;;;;;15.70;6.10;;;15.20;99.90;;;;;;5028982;28;20234;-82
2021/07/30 03:41:49;;;;;;;14.23;6.87;;;15.20;99.90;;;;;;5027212;28;20228;-80
2021/07/30 03:44:16;;;;;;;11.23;5.95;;;15.10;99.90;;;;;;5028099;28;20217;-80
2021/07/30 03:46:43;;;;;;;12.33;5.63;;;15.10;99.90;;;;;;5027892;28;20207;-79
2021/07/30 03:49:10;;;;;;;10.47;5.30;;;15.00;99.90;;;;;;5018801;28;20493;-81
2021/07/30 03:51:37;;;;;;;9.75;5.38;;;15.00;99.90;;;;;;5007745;28;20592;-80
2021/07/30 03:54:04;;;;;;;10.52;6.03;;;15.00;99.90;;;;;;5013624;28;20211;-82
2021/07/30 03:56:31;;;;;;;8.33;5.87;;;15.00;99.90;;;;;;5027328;28;20211;-80
2021/07/30 03:58:59;;;;;;;7.83;5.50;;;14.90;99.90;;;;;;5028043;28;20210;-79
2021/07/30 04:01:27;;;;;;;10.33;5.60;;;14.90;99.90;;;;;;5019750;28;20667;-81
2021/07/30 04:03:54;;;;;;;10.90;5.63;;;14.90;99.90;;;;;;5008655;28;20230;-80
2021/07/30 04:06:20;;;;;;;8.83;5.03;;;14.90;99.90;;;;;;5008047;28;20505;-81
2021/07/30 04:08:47;;;;;;;10.63;6.00;;;14.90;99.90;;;;;;5008056;28;20635;-80
2021/07/30 04:11:14;;;;;;;10.33;6.07;;;14.90;99.90;;;;;;5008462;28;20207;-80
2021/07/30 04:13:41;;;;;;;12.00;6.73;;;14.90;99.90;;;;;;5008378;28;20222;-82
2021/07/30 04:16:09;;;;;;;10.07;5.97;;;14.90;99.90;;;;;;5008214;28;20211;-81
2021/07/30 04:18:36;;;;;;;9.33;5.60;;;14.90;99.90;;;;;;5013045;28;20217;-83
2021/07/30 04:21:04;;;;;;;13.90;5.83;;;14.90;99.90;;;;;;5030305;28;20206;-82
2021/07/30 04:23:31;;;;;;;10.17;6.07;;;14.90;99.90;;;;;;5015254;28;20569;-80
2021/07/30 04:25:59;;;;;;;13.77;6.27;;;15.00;99.90;;;;;;5008003;28;20223;-82
2021/07/30 04:28:25;;;;;;;13.87;6.47;;;14.90;99.90;;;;;;5009853;28;20199;-81
2021/07/30 04:30:53;;;;;;;11.27;6.23;;;15.00;99.90;;;;;;5007549;28;20210;-81
2021/07/30 04:33:21;;;;;;;13.40;6.27;;;15.00;99.90;;;;;;5007428;28;20199;-81
2021/07/30 04:35:48;;;;;;;8.38;5.55;;;15.00;99.90;;;;;;5006914;28;20568;-81
2021/07/30 04:38:15;;;;;;;11.50;5.80;;;15.00;99.90;;;;;;5007203;28;20235;-81
2021/07/30 04:40:41;;;;;;;10.03;6.20;;;15.10;99.90;;;;;;5006804;28;20542;-80
2021/07/30 04:43:08;;;;;;;11.17;5.40;;;15.10;99.90;;;;;;5006181;28;20234;-81
2021/07/30 04:45:36;;;;;;;15.70;6.85;;;15.10;99.90;;;;;;5006030;28;20218;-82
2021/07/30 04:48:03;;;;;;;8.50;5.45;;;15.10;99.90;;;;;;5015987;28;20202;-82
2021/07/30 04:50:31;;;;;;;12.17;6.30;;;15.10;99.90;;;;;;5021517;28;20206;-82
2021/07/30 04:52:58;;;;;;;8.87;5.67;;;15.20;99.90;;;;;;5012254;28;20592;-82
2021/07/30 04:55:25;;;;;;;11.27;6.10;;;15.20;99.90;;;;;;5007552;28;20291;-80
2021/07/30 04:57:53;;;;;;;8.30;5.60;;;15.20;99.90;;;;;;5006382;28;20503;-81
2021/07/30 05:00:21;;;;;;;10.15;5.35;;;15.20;99.90;;;;;;5007401;28;20261;-81
2021/07/30 05:02:47;;;;;;;10.80;5.83;;;15.20;99.90;;;;;;5006026;28;20664;-81
2021/07/30 05:05:14;;;;;;;13.83;5.67;;;15.30;99.90;;;;;;5006833;28;20208;-82
2021/07/30 05:07:43;;;;;;;10.73;5.57;;;15.30;99.90;;;;;;5005764;28;20215;-82
2021/07/30 05:10:10;;;;;;;11.40;5.93;;;15.30;99.90;;;;;;5005922;28;20573;-82
2021/07/30 05:12:37;;;;;;;18.05;6.30;;;15.40;99.90;;;;;;5006047;28;20227;-82
2021/07/30 05:15:05;;;;;;;13.43;5.78;;;15.30;99.90;;;;;;5006749;28;20218;-80
2021/07/30 05:17:32;;;;;;;12.03;5.70;;;15.40;99.90;;;;;;5006278;28;20647;-81
2021/07/30 05:19:59;;;;;;;9.40;5.30;;;15.40;99.90;;;;;;5005991;28;20203;-81
2021/07/30 05:22:26;;;;;;;12.13;6.23;;;15.50;99.90;;;;;;5006420;28;20219;-82
2021/07/30 05:24:54;;;;;;;10.80;5.18;;;15.50;99.90;;;;;;5014997;28;20264;-81
2021/07/30 05:27:21;;;;;;;16.65;6.72;;;15.50;99.90;;;;;;5013935;28;20210;-84
2021/07/30 05:29:47;;;;;;;14.13;5.13;;;15.50;99.90;;;;;;5005763;28;20206;-84
2021/07/30 05:32:14;;;;;;;8.93;5.33;;;15.60;99.90;;;;;;5006267;28;20207;-81
2021/07/30 05:34:41;;;;;;;8.20;5.20;;;15.60;99.90;;;;;;5005343;28;20233;-83
2021/07/30 05:37:08;;;;;;;11.00;6.22;;;15.70;99.90;;;;;;5005889;28;20207;-81
2021/07/30 05:39:35;;;;;;;9.50;5.72;;;15.70;99.90;;;;;;5017739;28;20245;-84
2021/07/30 05:42:04;;;;;;;11.45;5.35;;;15.80;99.90;;;;;;5025463;28;20195;-83
2021/07/30 05:44:30;;;;;;;17.75;6.82;;;15.80;99.90;;;;;;5025856;28;20210;-81
2021/07/30 05:46:57;;;;;;;8.25;5.63;;;15.90;99.90;;;;;;5024001;28;20211;-81
2021/07/30 05:49:24;;;;;;;8.50;5.55;;;16.00;99.90;;;;;;5006334;28;20203;-83
2021/07/30 05:51:51;;;;;;;8.98;5.43;;;16.00;99.90;;;;;;5013355;28;20199;-81
2021/07/30 05:54:19;;;;;;;17.45;7.63;;;16.10;99.90;;;;;;5007175;28;20592;-83
2021/07/30 05:56:46;;;;;;;12.32;5.72;;;16.20;99.90;;;;;;5027046;28;20226;-81
2021/07/30 05:59:14;;;;;;;14.68;6.18;;;16.20;99.90;;;;;;5025127;28;20257;-84
2021/07/30 06:01:41;;;;;;;12.13;6.43;;;16.20;99.90;;;;;;5007759;28;20218;-83
2021/07/30 06:04:08;;;;;;;11.02;5.85;;;16.30;99.90;;;;;;5004494;28;20241;-84
2021/07/30 06:32:45;;;;;;;10.40;6.30;;;16.90;99.90;;;;;;5114236;27;21018;-81
2021/07/30 06:35:14;;;;;;;14.38;5.80;;;17.30;99.90;;;;;;5122701;28;20203;-81
2021/07/30 06:37:42;;;;;;;12.07;5.38;;;17.50;99.90;;;;;;5127456;27;20281;-81
2021/07/30 06:40:12;;;;;;;8.90;5.25;;;17.80;99.90;;;;;;5114573;27;20204;-81
2021/07/30 06:42:40;;;;;;;12.50;5.85;;;17.90;99.90;;;;;;5107687;28;20219;-81
2021/07/30 06:45:08;;;;;;;10.90;5.65;;;18.00;99.90;;;;;;5114956;28;20195;-81
2021/07/30 06:47:35;;;;;;;10.80;6.05;;;18.20;99.90;;;;;;5121339;28;20930;-81
2021/07/30 06:50:04;;;;;;;10.77;5.75;;;18.40;99.90;;;;;;5106771;28;20223;-80
2021/07/30 06:52:32;;;;;;;11.80;5.13;;;18.50;99.90;;;;;;5108080;28;20219;-81
2021/07/30 06:54:58;;;;;;;11.00;5.60;;;18.50;99.90;;;;;;5103699;28;20208;-81
2021/07/30 06:57:25;;;;;;;11.05;4.93;;;18.70;99.90;;;;;;5102844;28;20204;-82
2021/07/30 06:59:53;;;;;;;10.02;4.93;;;18.80;99.90;;;;;;5106864;28;20206;-80
2021/07/30 07:02:19;;;;;;;11.00;4.95;;;18.70;99.90;;;;;;5124579;28;20223;-81
2021/07/30 07:04:46;;;;;;;7.32;4.72;;;18.80;99.90;;;;;;5124138;28;20595;-81
2021/07/30 07:07:15;;;;;;;10.35;4.80;;;18.80;99.90;;;;;;5115133;28;20215;-81
2021/07/30 07:09:42;;;;;;;9.05;4.68;;;18.90;99.90;;;;;;5101845;28;20208;-82
2021/07/30 07:12:09;;;;;;;6.38;4.00;;;19.00;99.90;;;;;;5112341;28;20218;-82
2021/07/30 07:14:37;;;;;;;9.32;4.93;;;19.10;99.90;;;;;;5121702;28;20213;-83
2021/07/30 07:17:04;;;;;;;9.90;4.78;;;19.20;99.90;;;;;;5122881;28;20211;-81
2021/07/30 07:19:31;;;;;;;7.50;4.30;;;19.20;99.90;;;;;;5122444;28;20203;-81
2021/07/30 07:21:58;;;;;;;5.53;4.65;;;19.40;99.90;;;;;;5120829;28;20230;-80
2021/07/30 07:24:26;;;;;;;7.30;4.45;;;19.40;99.90;;;;;;5124230;27;20207;-83
2021/07/30 07:26:53;;;;;;;8.52;3.95;;;19.30;99.90;;;;;;5125195;27;20222;-80
2021/07/30 07:29:20;;;;;;;10.38;4.63;;;19.40;99.90;;;;;;5113341;27;20212;-82
2021/07/30 07:31:46;;;;;;;7.72;4.75;;;19.40;99.90;;;;;;5117566;28;20248;-82
2021/07/30 07:34:13;;;;;;;7.88;4.10;;;19.40;99.90;;;;;;5111799;28;20215;-82
2021/07/30 07:36:40;;;;;;;7.13;4.63;;;19.40;99.90;;;;;;5111969;28;20197;-84
2021/07/30 07:39:07;;;;;;;9.18;4.68;;;19.40;99.90;;;;;;5111903;28;20608;-82
2021/07/30 07:41:36;;;;;;;7.43;3.88;;;19.50;99.90;;;;;;5129418;28;20227;-82
2021/07/30 07:44:02;;;;;;;7.88;4.05;;;19.50;99.90;;;;;;5124714;28;20196;-82
2021/07/30 07:46:29;;;;;;;6.60;3.92;;;19.50;99.90;;;;;;5115936;28;20214;-82
2021/07/30 07:48:56;;;;;;;10.07;4.38;;;19.50;99.90;;;;;;5114781;28;20199;-84
2021/07/30 07:51:23;;;;;;;8.02;4.10;;;19.60;99.90;;;;;;5108823;28;20208;-84
2021/07/30 07:53:50;;;;;;;9.07;4.63;;;19.70;99.90;;;;;;5094691;28;20585;-83
2021/07/30 07:56:16;;;;;;;9.88;4.57;;;19.70;99.90;;;;;;5100132;28;20229;-83
2021/07/30 07:58:44;;;;;;;10.85;4.47;;;19.80;99.90;;;;;;5105900;28;20196;-81
2021/07/30 08:01:14;;;;;;;7.90;4.65;;;19.80;99.90;;;;;;5103511;28;20227;-81
2021/07/30 08:03:44;;;;;;;8.07;4.65;;;19.80;99.90;;;;;;5101129;28;20219;-81
2021/07/30 08:06:16;;;;;;;5.63;3.63;;;19.80;99.90;;;;;;5103275;28;20197;-80
2021/07/30 08:08:42;;;;;;;8.80;4.20;;;19.80;99.90;;;;;;5091458;28;20215;-83
2021/07/30 08:11:09;;;;;;;5.90;3.90;;;19.70;99.90;;;;;;5095726;28;20690;-84
2021/07/30 08:13:36;;;;;;;8.82;4.18;;;19.50;99.90;;;;;;5091913;28;20204;-81
2021/07/30 08:16:05;;;;;;;9.45;4.63;;;19.60;99.90;;;;;;5106628;28;20214;-81
2021/07/30 08:18:31;;;;;;;7.10;4.25;;;19.60;99.90;;;;;;5105889;28;20204;-79
2021/07/30 08:20:59;;;;;;;8.05;3.60;;;19.70;99.90;;;;;;5089565;28;20225;-83
2021/07/30 08:23:26;;;;;;;9.18;3.97;;;19.80;99.90;;;;;;5089255;28;20657;-84
2021/07/30 08:25:53;;;;;;;7.75;3.65;;;19.80;99.90;;;;;;5089316;28;20515;-83
2021/07/30 08:28:20;;;;;;;5.38;3.40;;;19.80;99.90;;;;;;5088363;28;20204;-84
2021/07/30 08:30:47;;;;;;;5.05;3.55;;;19.90;99.90;;;;;;5087925;28;20242;-80
2021/07/30 08:33:16;;;;;;;4.80;3.40;;;20.10;99.90;;;;;;5087872;28;20761;-80
2021/07/30 08:35:43;;;;;;;5.00;3.58;;;20.20;99.90;;;;;;5088712;28;20209;-80
2021/07/30 08:38:09;;;;;;;9.43;4.00;;;20.20;99.90;;;;;;5089450;28;20211;-82
2021/07/30 08:40:39;;;;;;;6.40;3.55;;;20.10;99.90;;;;;;5086430;28;20212;-81
2021/07/30 08:43:06;;;;;;;7.30;3.22;;;20.10;99.90;;;;;;5086757;28;20297;-82
2021/07/30 08:45:33;;;;;;;4.78;3.30;;;20.30;99.90;;;;;;5086593;28;20201;-82
2021/07/30 08:48:01;;;;;;;10.07;4.05;;;20.40;99.90;;;;;;5087182;28;20219;-81
2021/07/30 08:50:31;;;;;;;8.23;3.67;;;20.50;99.90;;;;;;5087513;28;20788;-83
2021/07/30 08:53:04;;;;;;;6.68;3.22;;;20.60;99.90;;;;;;5107291;28;20485;-80
2021/07/30 08:55:31;;;;;;;6.28;3.67;;;20.70;99.90;;;;;;5106861;28;20203;-81
2021/07/30 08:57:58;;;;;;;7.30;3.67;;;20.80;99.90;;;;;;5107970;28;20192;-80
2021/07/30 09:00:25;;;;;;;9.55;3.75;;;20.90;99.90;;;;;;5095394;28;20199;-80
2021/07/30 09:02:54;;;;;;;12.45;3.92;;;21.00;99.90;;;;;;5104521;28;20239;-83
2021/07/30 09:05:25;;;;;;;10.25;4.03;;;20.90;99.90;;;;;;5092587;28;20593;-80
2021/07/30 09:07:54;;;;;;;6.88;3.63;;;20.90;99.90;;;;;;5093482;28;20216;-81
2021/07/30 09:10:31;;;;;;;6.50;3.60;;;21.00;99.90;;;;;;5088325;28;20205;-80
2021/07/30 09:13:18;;;;;;;8.18;3.63;;;20.90;99.90;;;;;;5087218;28;20214;-82
2021/07/30 09:15:47;;;;;;;7.68;3.33;;;21.00;99.90;;;;;;5087435;28;20193;-82
2021/07/30 09:18:32;;;;;;;12.20;3.88;;;21.20;99.90;;;;;;5086647;28;20262;-81
2021/07/30 09:21:19;;;;;;;6.07;3.67;;;21.30;99.90;;;;;;5086656;28;20217;-80
2021/07/30 09:23:49;;;;;;;9.90;3.83;;;21.40;99.90;;;;;;5103986;28;20501;-80
2021/07/30 09:26:34;;;;;;;7.88;3.45;;;21.40;99.90;;;;;;5105262;28;20208;-81
2021/07/30 09:29:02;;;;;;;9.43;3.75;;;21.40;99.90;;;;;;5092171;28;20215;-81
2021/07/30 09:31:37;;;;;;;10.00;3.63;;;21.20;99.90;;;;;;5086804;28;20247;-83
2021/07/30 09:34:21;;;;;;;7.07;3.97;;;21.30;99.90;;;;;;5087434;28;20619;-81
2021/07/30 09:36:52;;;;;;;9.10;3.67;;;21.30;99.90;;;;;;5087142;28;20520;-82
2021/07/30 09:39:21;;;;;;;7.55;4.15;;;21.50;99.90;;;;;;5087767;28;20569;-82
2021/07/30 09:41:56;;;;;;;7.40;3.92;;;21.70;99.90;;;;;;5087464;28;20227;-79
2021/07/30 09:44:23;;;;;;;9.63;4.10;;;21.90;99.90;;;;;;5088936;28;20200;-81
2021/07/30 09:47:03;;;;;;;10.88;3.90;;;22.10;99.90;;;;;;5108070;28;20678;-81
2021/07/30 09:49:45;;;;;;;7.10;3.80;;;22.30;99.90;;;;;;5090478;28;20212;-88
2021/07/30 09:52:13;;;;;;;9.27;4.70;;;22.50;99.90;;;;;;5087603;28;20579;-82
2021/07/30 09:54:48;;;;;;;7.53;4.30;;;22.50;99.90;;;;;;5089471;28;20200;-79
2021/07/30 09:57:16;;;;;;;8.00;4.05;;;22.60;99.90;;;;;;5109034;28;20883;-84
2021/07/30 09:59:44;;;;;;;7.05;3.88;;;22.60;99.90;;;;;;5107950;28;20620;-82
2021/07/30 10:02:14;;;;;;;8.32;4.00;;;22.60;99.90;;;;;;5107608;28;20250;-81
2021/07/30 10:04:44;;;;;;;7.05;3.45;;;22.60;99.90;;;;;;5086090;28;20611;-79
2021/07/30 10:07:14;;;;;;;11.43;3.95;;;22.70;99.90;;;;;;5086768;28;20653;-84
2021/07/30 10:09:45;;;;;;;8.05;3.95;;;22.90;99.90;;;;;;5087581;28;20197;-81
2021/07/30 10:12:13;;;;;;;8.18;4.28;;;23.00;99.90;;;;;;5084884;28;20204;-82
2021/07/30 10:14:41;;;;;;;14.43;4.28;;;23.10;99.90;;;;;;5086198;28;20209;-80
2021/07/30 10:17:08;;;;;;;11.27;4.53;;;22.90;99.90;;;;;;5103303;28;20239;-79
2021/07/30 10:19:37;;;;;;;8.15;4.60;;;22.60;99.90;;;;;;5106229;28;20200;-81
2021/07/30 10:22:07;;;;;;;9.98;3.83;;;22.60;99.90;;;;;;5121722;28;20208;-80
2021/07/30 10:24:42;;;;;;;9.90;4.32;;;22.60;99.90;;;;;;5094519;28;20287;-81
2021/07/30 10:27:11;;;;;;;7.55;3.92;;;22.60;99.90;;;;;;5086632;28;20210;-79
2021/07/30 10:30:10;;;;;;;9.48;3.90;;;22.70;99.90;;;;;;5085011;28;20875;-81
2021/07/30 10:32:45;;;;;;;4.95;3.30;;;23.00;99.90;;;;;;5086888;28;20243;-81
2021/07/30 10:35:12;;;;;;;8.57;3.80;;;23.20;99.90;;;;;;5084832;28;20510;-79
2021/07/30 10:37:41;;;;;;;9.25;4.45;;;23.20;99.90;;;;;;5085843;28;20212;-79
2021/07/30 10:40:17;;;;;;;6.55;3.95;;;23.20;99.90;;;;;;5083973;28;20300;-78
2021/07/30 10:43:06;;;;;;;6.28;4.10;;;23.00;99.90;;;;;;5084141;28;20220;-79
2021/07/30 10:45:34;;;;;;;7.30;4.00;;;23.10;99.90;;;;;;5088504;28;20224;-80
2021/07/30 10:48:34;;;;;;;7.47;3.47;;;23.20;99.90;;;;;;5105619;28;20204;-85
2021/07/30 10:51:17;;;;;;;6.38;3.20;;;23.40;99.90;;;;;;5105157;28;20204;-80
2021/07/30 10:53:45;;;;;;;10.07;3.90;;;23.50;99.90;;;;;;5097020;28;20793;-80
2021/07/30 10:56:40;;;;;;;6.78;4.18;;;23.80;99.90;;;;;;5086872;28;20197;-83
2021/07/30 10:59:09;;;;;;;7.32;4.28;;;24.10;99.90;;;;;;5100212;28;20215;-81
2021/07/30 11:02:02;;;;;;;7.47;3.95;;;24.10;99.90;;;;;;5105909;28;20224;-81
2021/07/30 11:04:30;;;;;;;4.78;4.13;;;24.00;99.90;;;;;;5067557;28;20231;-80
2021/07/30 11:06:59;;;;;;;4.35;3.13;;;24.00;99.90;;;;;;5092628;28;20219;-79
2021/07/30 11:09:28;;;;;;;5.47;3.75;;;23.90;99.90;;;;;;5088784;28;20211;-81
2021/07/30 11:11:56;;;;;;;7.07;3.67;;;23.90;99.90;;;;;;5088375;28;20649;-81
2021/07/30 11:14:26;;;;;;;6.63;4.30;;;23.70;99.90;;;;;;5089530;28;20600;-80
2021/07/30 11:16:55;;;;;;;10.73;4.25;;;23.30;99.90;;;;;;5089262;28;20211;-80
2021/07/30 11:19:23;;;;;;;7.43;3.55;;;23.00;99.90;;;;;;5088906;28;20288;-80
2021/07/30 11:21:51;;;;;;;4.35;3.17;;;23.00;99.90;;;;;;5088772;28;20225;-80
2021/07/30 11:24:18;;;;;;;5.00;3.70;;;23.00;99.90;;;;;;5088010;28;20201;-83
2021/07/30 11:26:46;;;;;;;4.90;3.45;;;23.10;99.90;;;;;;5087916;28;20215;-78
2021/07/30 11:29:14;;;;;;;4.55;3.35;;;22.90;99.90;;;;;;5076265;22;20249;-80
2021/07/30 11:31:54;;;;;;;6.80;5.00;;;22.80;99.90;;;;;;5047194;28;20217;-78
2021/07/30 11:34:22;;;;;;;7.50;4.93;;;22.60;99.90;;;;;;5049465;28;20589;-82
2021/07/30 11:36:50;;;;;;;5.30;4.18;;;22.30;99.90;;;;;;5049895;28;20209;-85
2021/07/30 11:39:18;;;;;;;6.25;4.30;;;22.20;99.90;;;;;;5049628;28;20632;-82
2021/07/30 11:41:49;;;;;;;8.70;6.03;;;22.10;99.90;;;;;;5049163;28;20237;-81
2021/07/30 11:44:17;;;;;;;9.90;6.30;;;22.10;99.90;;;;;;5047294;28;20210;-80
2021/07/30 11:46:54;;;;;;;8.52;5.75;;;22.00;99.90;;;;;;5048609;28;20205;-79
2021/07/30 11:49:34;;;;;;;8.10;5.40;;;21.80;99.90;;;;;;5046756;28;20209;-81
2021/07/30 11:52:05;;;;;;;10.10;5.50;;;21.70;99.90;;;;;;5046325;28;20399;-77
2021/07/30 11:54:34;;;;;;;10.38;5.55;;;21.50;99.90;;;;;;5046594;28;20210;-80
2021/07/30 11:57:01;;;;;;;6.65;5.28;;;21.40;99.90;;;;;;5047363;28;20229;-79
2021/07/30 11:59:43;;;;;;;8.40;5.47;;;21.30;99.90;;;;;;5047382;28;20216;-86
2021/07/30 12:02:11;;;;;;;5.95;4.68;;;21.20;99.90;;;;;;5047734;28;20225;-80
2021/07/30 12:04:48;;;;;;;8.23;5.57;;;21.10;99.90;;;;;;5048489;28;20596;-83
2021/07/30 12:07:18;;;;;;;8.02;4.50;;;20.90;99.90;;;;;;5046462;28;20201;-81
2021/07/30 12:09:47;;;;;;;8.55;4.85;;;20.80;99.90;;;;;;5046911;28;20602;-81
2021/07/30 12:12:15;;;;;;;5.90;4.53;;;20.70;99.90;;;;;;5046648;28;20201;-81
2021/07/30 12:14:47;;;;;;;11.00;6.22;;;20.70;99.90;;;;;;5047436;28;20198;-79
2021/07/30 12:17:16;;;;;;;8.02;5.57;;;20.60;99.90;;;;;;5047296;28;20249;-80
2021/07/30 12:19:44;;;;;;;8.25;6.53;;;20.60;99.90;;;;;;5047722;28;20222;-79
2021/07/30 12:22:11;;;;;;;9.27;6.47;;;20.60;99.90;;;;;;5047307;28;20237;-81
2021/07/30 12:24:49;;;;;;;8.30;6.10;;;20.50;99.90;;;;;;5047941;28;20214;-82
2021/07/30 12:27:18;;;;;;;7.68;6.15;;;20.50;99.90;;;;;;5048174;28;20295;-81
2021/07/30 12:29:47;;;;;;;8.40;6.72;;;20.50;99.90;;;;;;5059714;28;20264;-81
2021/07/30 12:32:20;;;;;;;9.25;7.20;;;20.60;99.90;;;;;;5067483;28;20202;-84
2021/07/30 12:34:57;;;;;;;15.52;7.35;;;20.60;99.90;;;;;;5067242;28;20559;-81
2021/07/30 12:37:25;;;;;;;8.82;6.38;;;20.50;99.90;;;;;;5067677;28;20594;-82
2021/07/30 12:39:54;;;;;;;9.20;6.70;;;20.50;99.90;;;;;;5068372;28;20205;-80
2021/07/30 12:42:22;;;;;;;9.68;7.75;;;20.40;99.90;;;;;;5069004;28;20221;-83
2021/07/30 12:45:10;;;;;;;11.15;7.88;;;20.40;99.90;;;;;;5070399;28;20205;-82
2021/07/30 12:47:41;;;;;;;12.75;9.10;;;20.40;99.90;;;;;;5062911;28;20621;-82
2021/07/30 12:50:27;;;;;;;15.02;9.75;;;20.20;99.90;;;;;;5048042;28;20206;-81
2021/07/30 12:53:18;;;;;;;17.33;10.27;;;20.00;99.90;;;;;;5046961;28;20202;-79
2021/07/30 12:56:15;;;;;;;14.52;11.13;;;19.90;99.90;;;;;;5037304;28;20238;-82
2021/07/30 12:58:53;;;;;;;11.45;10.23;;;19.60;99.90;;;;;;4972952;28;20216;-81
2021/07/30 13:01:20;;;;;;;10.60;8.85;;;19.50;99.90;;;;;;5057385;28;20201;-79
2021/07/30 13:03:55;;;;;;;12.43;11.05;;;19.40;99.90;;;;;;5068101;28;20229;-81
2021/07/30 13:06:22;;;;;;;11.38;9.75;;;19.30;99.90;;;;;;5075111;28;20215;-82
2021/07/30 13:08:52;;;;;;;15.68;11.90;;;19.20;99.90;;;;;;5077329;28;20209;-82
2021/07/30 13:11:20;;;;;;;10.90;9.20;;;19.20;99.90;;;;;;5072914;28;20212;-84
2021/07/30 13:13:47;;;;;;;10.98;9.85;;;19.20;99.90;;;;;;5053401;28;20201;-84
2021/07/30 13:16:15;;;;;;;12.02;10.43;;;19.30;99.90;;;;;;5054165;28;20198;-85
2021/07/30 13:18:42;;;;;;;11.18;9.15;;;19.30;99.90;;;;;;5052726;28;20293;-83